• Join FlightAware (Why Join?)
  • Login
  • US Flag 
03:21AM EDT


 

Airport Tracker/Info


-or-


 

Live Flight TrackerFlight Track Log ✈ OPT452 ✈ 09-May-2013 ✈ KSDL - KSMO

Flight Track Log - Related Links

Times and Time Zones

All times are in EDT time to prevent confusion due to time zone crossing. See the OPT452 flight status page for this flight to view local times or setup timezone preferences in your user account.

Time Position Orientation Groundspeed Altitude Reporting Facility
EDT Latitude Longitude Course Direction KTS MPH feet Rate Location/Type
07:52PM 33.6167 -111.9167 270° West 133 153 2,400  Level Phoenix TRACON
07:53PM 33.6167 -111.9500 270° West 155 178 3,200 1,440 Climbing Phoenix TRACON
07:54PM 33.6372 -111.9794 310° West 183 211 4,200 2,100 Climbing Albuquerque Center
07:55PM 33.6686 -112.0500 298° West 220 253 6,600 1,860 Climbing Albuquerque Center
07:56PM 33.7292 -112.1019 325° Northwest 261 300 8,100 1,320 Climbing Albuquerque Center
07:57PM 33.7925 -112.1497 328° Northwest 265 305 9,400 2,100 Climbing Albuquerque Center
07:58PM 33.8697 -112.2117 326° Northwest 274 315 12,500 2,580 Climbing Albuquerque Center
07:59PM 33.9408 -112.2653 328° Northwest 291 335 14,800 2,280 Climbing Albuquerque Center
08:00PM 34.0172 -112.3233 328° Northwest 313 360 17,200 2,160 Climbing Albuquerque Center
08:01PM 34.0978 -112.3758 332° Northwest 324 373 19,300 2,040 Climbing Albuquerque Center
08:02PM 34.1817 -112.4272 333° Northwest 333 383 21,400 1,980 Climbing Albuquerque Center
08:03PM 34.2675 -112.4808 333° Northwest 342 394 23,400 2,040 Climbing Albuquerque Center
08:04PM 34.3547 -112.5347 333° Northwest 348 400 25,700 2,100 Climbing Albuquerque Center
08:05PM 34.4394 -112.5889 332° Northwest 345 397 27,800 1,920 Climbing Albuquerque Center
08:06PM 34.5256 -112.6419 333° Northwest 340 391 29,700 1,560 Climbing Albuquerque Center
08:07PM 34.6103 -112.6953 333° Northwest 342 394 31,100 1,440 Climbing Albuquerque Center
08:08PM 34.6961 -112.7894 318° Northwest 351 404 32,700 1,200 Climbing Albuquerque Center
08:09PM 34.7181 -112.9050 283° West 353 406 33,600 780 Climbing Albuquerque Center
08:10PM 34.7231 -113.0292 273° West 365 420 34,400 660 Climbing Albuquerque Center
08:11PM 34.7275 -113.1578 272° West 376 433 35,000 540 Climbing Albuquerque Center
08:12PM 34.7322 -113.2911 273° West 389 448 35,600 480 Climbing Albuquerque Center
08:13PM 34.7361 -113.4258 272° West 396 456 36,000 180 Climbing Albuquerque Center
08:14PM 34.7403 -113.5672 272° West 411 473 36,000  Level Albuquerque Center
08:15PM 34.7458 -113.7422 272° West 429 494 36,000  Level Albuquerque Center
08:16PM 34.7492 -113.8922 272° West 439 505 36,000  Level Albuquerque Center
08:17PM 34.7514 -113.9225 275° West 444 511 36,000  Level Los Angeles Center
08:18PM 34.7564 -114.0892 272° West 448 516 36,000  Level Los Angeles Center
08:19PM 34.7594 -114.2400 271° West 447 514 36,000 -540 Level Los Angeles Center
08:20PM 34.7631 -114.3908 272° West 447 514 35,000 -900 Descending Los Angeles Center
08:21PM 34.7675 -114.5425 272° West 448 516 34,200 -540 Descending Los Angeles Center
08:22PM 34.7703 -114.6933 271° West 446 513 34,000 -120 Descending Los Angeles Center
08:23PM 34.7747 -114.8792 272° West 454 522 34,000  Level Los Angeles Center
08:24PM 34.7769 -115.0353 271° West 459 528 34,000  Level Los Angeles Center
08:25PM 34.7806 -115.1894 272° West 457 526 34,000  Level Los Angeles Center
08:26PM 34.7831 -115.3442 271° West 457 526 34,000 -600 Level Los Angeles Center
08:27PM 34.7856 -115.5014 271° West 459 528 32,800 -1,680 Descending Los Angeles Center
08:28PM 34.7881 -115.6692 271° West 461 531 30,600 -2,160 Descending Los Angeles Center
08:29PM 34.7903 -115.8314 271° West 477 549 28,400 -2,160 Descending Los Angeles Center
08:30PM 34.7922 -115.9922 271° West 478 550 26,200 -2,220 Descending Los Angeles Center
08:31PM 34.7936 -116.1531 271° West 477 549 23,900 -2,460 Descending Los Angeles Center
08:32PM 34.7972 -116.3344 271° West 449 517 21,200 -2,460 Descending Los Angeles Center
08:33PM 34.7967 -116.4814 270° West 436 502 18,900 -2,220 Descending Los Angeles Center
08:34PM 34.7989 -116.6167 271° West 402 463 16,700 -2,160 Descending Los Angeles Center
08:35PM 34.7944 -116.7494 268° West 393 452 14,500 -1,380 Descending Los Angeles Center
08:36PM 34.7639 -116.8756 254° West 388 447 13,900 -300 Descending Los Angeles Center
08:37PM 34.7519 -117.0031 264° West 384 442 13,900  Level Los Angeles Center
08:38PM 34.7358 -117.1589 263° West 384 442 13,900  Level Los Angeles Center
08:39PM 34.7217 -117.2878 262° West 384 442 14,000 -600 Climbing Los Angeles Center
08:40PM 34.7108 -117.4178 264° West 385 443 12,700 -1,620 Descending Los Angeles Center
08:41PM 34.7122 -117.5475 271° West 384 442 10,700 -1,320 Descending Los Angeles Center
08:42PM 34.7128 -117.6628 270° West 354 407 10,000 -420 Descending Los Angeles Center
08:43PM 34.7131 -117.7656 270° West 317 365 9,900 -540 Descending Los Angeles Center
08:45PM 34.7250 -117.8592 279° West 296 341 8,800 -840 Descending Los Angeles Center
08:46PM 34.7236 -117.9803 269° West 278 320 8,100 -420 Descending Los Angeles Center
08:47PM 34.6714 -118.0503 228° Southwest 280 322 8,000 -60 Descending Los Angeles Center
08:48PM 34.6189 -118.1208 228° Southwest 281 323 8,000  Level Los Angeles Center
08:49PM 34.5617 -118.1947 227° Southwest 287 330 8,000  Level Los Angeles Center
08:50PM 34.5050 -118.2675 227° Southwest 297 342 8,000  Level Los Angeles Center
08:51PM 34.4333 -118.3000 201° Southwest 292 336 8,000 -480 Level Los Angeles Center
08:52PM 34.3531 -118.2933 176° South 284 327 7,100 -540 Descending Los Angeles Center
08:53PM 34.2578 -118.2828 175° South 287 330 7,000 -420 Descending Los Angeles Center
08:54PM 34.1797 -118.2778 177° South 283 326 6,300 -1,680 Descending Los Angeles Center
08:55PM 34.1167 -118.3219 210° Southwest 273 314 3,600 -1,680 Descending Los Angeles Center
08:56PM 34.0619 -118.3953 228° Southwest 259 298 2,500 -1,200 Descending Los Angeles Center
08:57PM 34.0300 -118.4356 226° Southwest 202 232 1,000 -1,200 Descending Los Angeles Center
08:58PM 34.0169 -118.4531 228° Southwest 113 130 100 -900 Descending Los Angeles Center
09:00PM 34.0158 -118.4513 244° Southwest  Level Estimated
09:07PM 34.0158 -118.4513 244° Southwest  Level Estimated